Time;durP1;ratioP1;P1;durP2;ratioP2;P2;SDS_P1;SDS_P2;PMS_P1;PMS_P2;Temp;Humidity;BMP_temperature;BMP_pressure;BME280_temperature;BME280_humidity;BME280_pressure;Samples;Min_cycle;Max_cycle;Signal;HPM_P1;HPM_P2
2022/12/23 00:00:24;;;;;;;28.90;27.50;;;10.80;99.90;;;;;;6210566;23;20404;-74
2022/12/23 00:02:51;;;;;;;30.80;29.20;;;10.80;99.90;;;;;;6211565;23;20724;-75
2022/12/23 00:05:17;;;;;;;30.67;29.17;;;10.80;99.90;;;;;;6210907;23;20413;-75
2022/12/23 00:07:44;;;;;;;30.77;29.27;;;10.70;99.90;;;;;;6211282;23;20451;-76
2022/12/23 00:10:12;;;;;;;29.10;27.60;;;10.70;99.90;;;;;;6211365;23;20745;-76
2022/12/23 00:15:32;;;;;;;29.80;28.30;;;10.70;99.90;;;;;;6174165;23;20396;-78
2022/12/23 00:17:59;;;;;;;31.37;29.67;;;10.70;99.90;;;;;;6211410;23;20710;-78
2022/12/23 00:20:26;;;;;;;29.37;27.77;;;10.70;99.90;;;;;;6211331;23;20412;-77
2022/12/23 00:23:04;;;;;;;29.07;27.60;;;10.70;99.90;;;;;;6210835;23;20405;-77
2022/12/23 00:25:43;;;;;;;29.43;27.90;;;10.70;99.90;;;;;;6210686;23;20389;-75
2022/12/23 00:28:12;;;;;;;28.83;27.37;;;10.70;99.90;;;;;;6211481;23;20435;-76
2022/12/23 00:30:45;;;;;;;30.73;29.23;;;10.80;99.90;;;;;;6210887;23;20412;-79
2022/12/23 00:33:12;;;;;;;28.90;27.40;;;10.70;99.90;;;;;;6211208;23;20880;-78
2022/12/23 00:35:39;;;;;;;28.50;27.20;;;10.80;99.90;;;;;;6210556;23;20869;-77
2022/12/23 00:38:05;;;;;;;28.73;27.43;;;10.70;99.90;;;;;;6210868;23;20401;-77
2022/12/23 00:43:18;;;;;;;27.57;26.40;;;10.70;99.90;;;;;;6210466;23;20423;-76
2022/12/23 00:45:45;;;;;;;27.90;26.50;;;10.80;99.90;;;;;;6211028;23;20443;-76
2022/12/23 00:50:55;;;;;;;27.10;25.90;;;10.80;99.90;;;;;;6210805;23;20494;-76
2022/12/23 00:53:22;;;;;;;28.20;26.80;;;10.80;99.90;;;;;;6210242;23;20413;-76
2022/12/23 00:55:51;;;;;;;26.47;25.10;;;10.80;99.90;;;;;;6210686;23;20475;-76
2022/12/23 00:58:19;;;;;;;25.00;23.87;;;10.80;99.90;;;;;;6210663;23;20404;-75
2022/12/23 01:06:16;;;;;;;22.00;21.10;;;10.90;99.90;;;;;;6211458;23;20704;-76
2022/12/23 01:08:43;;;;;;;21.37;20.33;;;11.00;99.90;;;;;;6211078;23;20506;-76
2022/12/23 01:11:12;;;;;;;20.60;19.80;;;11.00;99.90;;;;;;6210563;23;20908;-76
2022/12/23 01:13:39;;;;;;;19.40;18.70;;;11.00;99.90;;;;;;6217108;23;20405;-75
2022/12/23 01:16:08;;;;;;;20.10;19.30;;;11.10;99.90;;;;;;6210751;23;20771;-76
2022/12/23 01:18:36;;;;;;;20.97;20.00;;;11.20;99.90;;;;;;6210901;23;20412;-77
2022/12/23 01:21:04;;;;;;;20.00;19.20;;;11.20;99.90;;;;;;6210386;23;20409;-76
2022/12/23 01:23:30;;;;;;;18.40;17.50;;;11.10;99.90;;;;;;6210877;23;20726;-76
2022/12/23 01:25:58;;;;;;;17.33;16.63;;;11.10;99.90;;;;;;6210930;23;20416;-77
2022/12/23 01:28:27;;;;;;;18.00;17.20;;;11.10;99.90;;;;;;6210446;23;20440;-76
2022/12/23 01:30:54;;;;;;;16.47;15.87;;;11.20;99.90;;;;;;6210690;23;20416;-77
2022/12/23 01:33:21;;;;;;;15.00;14.50;;;11.20;99.90;;;;;;6210516;23;21131;-76
2022/12/23 01:35:48;;;;;;;14.70;14.10;;;11.20;99.90;;;;;;6210613;23;20408;-75
2022/12/23 01:38:15;;;;;;;14.57;14.07;;;11.20;99.90;;;;;;6211997;23;20413;-75
2022/12/23 01:40:44;;;;;;;15.17;14.57;;;11.20;99.90;;;;;;6212822;23;20404;-76
2022/12/23 01:43:14;;;;;;;14.70;14.00;;;11.30;99.90;;;;;;6211925;23;20412;-76
2022/12/23 01:45:42;;;;;;;14.60;14.10;;;11.20;99.90;;;;;;6210635;23;20769;-76
2022/12/23 01:48:13;;;;;;;14.37;13.80;;;11.30;99.90;;;;;;6209983;23;20436;-75
2022/12/23 01:50:44;;;;;;;14.00;13.50;;;11.30;99.90;;;;;;6210144;23;20452;-75
2022/12/23 01:53:14;;;;;;;13.80;13.30;;;11.30;99.90;;;;;;6210416;23;20415;-75
2022/12/23 01:55:45;;;;;;;13.03;12.63;;;11.30;99.90;;;;;;6210334;23;20408;-74
2022/12/23 01:58:14;;;;;;;13.00;12.60;;;11.40;99.90;;;;;;6211079;23;20390;-74
2022/12/23 02:09:16;;;;;;;13.20;12.70;;;11.50;99.90;;;;;;6210186;23;20404;-74
2022/12/23 02:11:57;;;;;;;13.10;12.60;;;11.50;99.90;;;;;;6210513;23;20420;-74
2022/12/23 02:17:24;;;;;;;12.10;11.73;;;11.60;99.90;;;;;;6210950;23;20677;-74
2022/12/23 02:20:24;;;;;;;13.00;12.60;;;11.60;99.90;;;;;;6209436;23;20947;-74
2022/12/23 02:23:12;;;;;;;13.00;12.60;;;11.70;99.90;;;;;;6209185;23;20854;-75
2022/12/23 02:25:56;;;;;;;14.00;13.40;;;11.70;99.90;;;;;;6209919;23;20392;-75
2022/12/23 02:28:57;;;;;;;13.07;12.67;;;11.70;99.90;;;;;;6209662;23;20428;-76
2022/12/23 02:31:34;;;;;;;13.00;12.40;;;11.70;99.90;;;;;;6209915;23;20397;-75
2022/12/23 02:34:08;;;;;;;12.80;12.40;;;11.60;99.90;;;;;;6209817;23;20393;-75
2022/12/23 02:36:44;;;;;;;12.60;12.20;;;11.70;99.90;;;;;;6209809;23;20392;-75
2022/12/23 02:39:19;;;;;;;13.10;12.60;;;11.80;99.90;;;;;;6210120;23;20425;-75
2022/12/23 02:41:53;;;;;;;13.97;13.37;;;11.80;99.90;;;;;;6209704;23;20404;-75
2022/12/23 02:44:29;;;;;;;14.67;14.07;;;11.90;99.90;;;;;;6209743;23;20595;-76
2022/12/23 02:47:02;;;;;;;22.83;21.93;;;11.90;99.90;;;;;;6210158;23;20389;-80
2022/12/23 02:49:32;;;;;;;23.33;22.33;;;11.80;99.90;;;;;;6210901;23;20431;-84
2022/12/23 02:52:02;;;;;;;24.30;23.30;;;11.80;99.90;;;;;;6210497;23;20448;-84
2022/12/23 02:54:32;;;;;;;24.30;23.20;;;11.80;99.90;;;;;;6210404;23;20876;-83
2022/12/23 02:57:02;;;;;;;25.00;23.90;;;11.80;99.90;;;;;;6210632;23;20408;-82
2022/12/23 02:59:36;;;;;;;25.60;24.50;;;11.70;99.90;;;;;;6210163;23;20433;-81
2022/12/23 03:02:04;;;;;;;26.83;25.53;;;11.80;99.90;;;;;;6211651;23;20389;-83
2022/12/23 03:04:31;;;;;;;27.30;25.73;;;11.80;99.90;;;;;;6209651;23;20416;-83
2022/12/23 03:06:59;;;;;;;26.97;25.67;;;11.80;99.90;;;;;;6210100;23;20409;-83
2022/12/23 03:09:35;;;;;;;26.73;25.53;;;11.70;99.90;;;;;;6210423;23;20448;-82
2022/12/23 03:12:06;;;;;;;27.67;26.17;;;11.70;99.90;;;;;;6210310;23;20388;-81
2022/12/23 03:14:55;;;;;;;27.60;26.20;;;11.70;99.90;;;;;;6210208;23;20412;-80
2022/12/23 03:17:35;;;;;;;27.00;25.70;;;11.70;99.90;;;;;;6209226;23;20915;-80
2022/12/23 03:20:11;;;;;;;26.97;25.67;;;11.70;99.90;;;;;;6209834;23;20448;-81
2022/12/23 03:22:46;;;;;;;27.63;26.10;;;11.80;99.90;;;;;;6209540;23;20393;-80
2022/12/23 03:25:21;;;;;;;27.90;26.50;;;11.80;99.90;;;;;;6210044;23;20842;-80
2022/12/23 03:27:55;;;;;;;28.17;26.83;;;11.80;99.90;;;;;;6209278;23;20435;-79
2022/12/23 03:30:23;;;;;;;28.17;26.77;;;11.80;99.90;;;;;;6209507;23;20696;-79
2022/12/23 03:32:54;;;;;;;28.67;27.27;;;11.80;99.90;;;;;;6209330;23;20597;-80
2022/12/23 03:35:24;;;;;;;29.33;27.73;;;11.90;99.90;;;;;;6208805;23;20704;-77
2022/12/23 03:37:54;;;;;;;29.50;28.00;;;12.00;99.90;;;;;;6209960;23;20408;-77
2022/12/23 03:40:24;;;;;;;30.40;28.80;;;12.00;99.90;;;;;;6210075;23;20404;-78
2022/12/23 03:42:57;;;;;;;30.40;28.80;;;12.10;99.90;;;;;;6209330;23;20405;-80
2022/12/23 03:45:28;;;;;;;30.63;29.03;;;12.10;99.90;;;;;;6209983;23;20835;-81
2022/12/23 03:47:59;;;;;;;30.80;29.20;;;12.10;99.90;;;;;;6209627;23;20429;-81
2022/12/23 03:50:27;;;;;;;30.00;28.40;;;12.20;99.90;;;;;;6209245;23;20436;-80
2022/12/23 03:52:57;;;;;;;31.17;29.30;;;12.30;99.90;;;;;;6209715;23;20393;-81
2022/12/23 03:55:30;;;;;;;30.80;29.10;;;12.20;99.90;;;;;;6209509;23;20397;-82
2022/12/23 03:58:03;;;;;;;31.77;30.10;;;12.20;99.90;;;;;;6209381;23;20735;-81
2022/12/23 04:00:35;;;;;;;30.33;28.73;;;12.10;99.90;;;;;;6212676;23;20490;-78
2022/12/23 04:03:10;;;;;;;30.00;28.40;;;12.10;99.90;;;;;;6209075;23;20494;-79
2022/12/23 04:05:40;;;;;;;29.40;27.90;;;12.10;99.90;;;;;;6209515;23;21165;-81
2022/12/23 04:08:13;;;;;;;30.30;28.70;;;12.10;99.90;;;;;;6209636;23;20445;-78
2022/12/23 04:10:40;;;;;;;29.10;27.50;;;12.00;99.90;;;;;;6209508;23;20404;-77
2022/12/23 04:13:07;;;;;;;29.47;27.97;;;12.00;99.90;;;;;;6209195;23;20472;-77
2022/12/23 04:15:38;;;;;;;29.20;27.70;;;12.00;99.90;;;;;;6209603;23;20415;-77
2022/12/23 04:18:06;;;;;;;28.20;26.70;;;12.00;99.90;;;;;;6209032;23;20394;-76
2022/12/23 04:20:33;;;;;;;28.63;27.23;;;12.00;99.90;;;;;;6209294;23;20405;-77
2022/12/23 04:23:00;;;;;;;28.90;27.30;;;11.90;99.90;;;;;;6209429;23;20479;-76
2022/12/23 04:25:27;;;;;;;29.00;27.40;;;11.90;99.90;;;;;;6209541;23;20420;-76
2022/12/23 04:27:53;;;;;;;28.43;26.93;;;11.80;99.90;;;;;;6209271;23;20480;-76
2022/12/23 04:30:20;;;;;;;29.00;27.50;;;11.90;99.90;;;;;;6208962;23;20724;-76
2022/12/23 04:32:47;;;;;;;29.73;28.13;;;11.80;99.90;;;;;;6208780;23;20413;-76
2022/12/23 04:35:15;;;;;;;30.47;28.97;;;11.90;99.90;;;;;;6209500;23;20401;-75
2022/12/23 04:37:42;;;;;;;30.10;28.60;;;11.90;99.90;;;;;;6209475;23;20686;-75
2022/12/23 04:40:09;;;;;;;30.47;28.87;;;12.00;99.90;;;;;;6208946;23;20904;-77
2022/12/23 04:42:36;;;;;;;30.70;29.10;;;12.00;99.90;;;;;;6209136;23;20412;-74
2022/12/23 04:45:03;;;;;;;30.00;28.50;;;12.00;99.90;;;;;;6208869;23;20413;-75
2022/12/23 04:47:30;;;;;;;30.50;29.00;;;12.10;99.90;;;;;;6210958;23;20404;-75
2022/12/23 04:49:56;;;;;;;31.13;29.53;;;12.00;99.90;;;;;;6211241;23;20428;-76
2022/12/23 04:52:25;;;;;;;30.97;29.37;;;12.10;99.90;;;;;;6210617;23;20440;-77
2022/12/23 04:54:51;;;;;;;31.30;29.50;;;12.20;99.90;;;;;;6220429;23;20416;-77
2022/12/23 04:57:18;;;;;;;30.87;29.27;;;12.10;99.90;;;;;;6227125;23;20413;-77
2022/12/23 04:59:45;;;;;;;31.43;29.70;;;12.20;99.90;;;;;;6222601;23;20400;-76
2022/12/23 05:02:11;;;;;;;30.60;29.00;;;12.20;99.90;;;;;;6223760;23;20412;-77
2022/12/23 05:04:38;;;;;;;31.20;29.50;;;12.20;99.90;;;;;;6227597;23;20408;-77
2022/12/23 05:07:05;;;;;;;30.90;29.30;;;12.20;99.90;;;;;;6218457;23;20412;-76
2022/12/23 05:09:33;;;;;;;33.20;31.20;;;12.20;99.90;;;;;;6212358;23;20440;-76
2022/12/23 05:11:59;;;;;;;32.00;30.10;;;12.20;99.90;;;;;;6211768;23;20410;-77
2022/12/23 05:14:26;;;;;;;31.80;30.10;;;12.20;99.90;;;;;;6211486;23;20435;-77
2022/12/23 05:16:53;;;;;;;30.57;28.97;;;12.20;99.90;;;;;;6210879;23;20408;-77
2022/12/23 05:19:19;;;;;;;32.30;30.50;;;12.20;99.90;;;;;;6210988;23;20409;-78
2022/12/23 05:21:46;;;;;;;32.83;31.13;;;12.20;99.90;;;;;;6211057;23;20412;-78
2022/12/23 05:24:13;;;;;;;32.23;30.57;;;12.20;99.90;;;;;;6210979;23;20427;-79
2022/12/23 05:26:41;;;;;;;34.80;32.90;;;12.20;99.90;;;;;;6211062;23;20413;-79
2022/12/23 05:29:07;;;;;;;33.63;31.83;;;12.30;99.90;;;;;;6212439;23;20440;-78
2022/12/23 05:31:34;;;;;;;33.30;31.50;;;12.40;99.90;;;;;;6210381;23;20741;-77
2022/12/23 05:34:01;;;;;;;32.67;30.93;;;12.40;99.90;;;;;;6210569;23;20413;-78
2022/12/23 05:36:28;;;;;;;33.27;31.57;;;12.30;99.90;;;;;;6210883;23;20684;-78
2022/12/23 05:38:56;;;;;;;33.43;31.63;;;12.30;99.90;;;;;;6210213;23;20862;-78
2022/12/23 05:41:23;;;;;;;34.00;32.30;;;12.40;99.90;;;;;;6210660;23;20771;-78
2022/12/23 05:43:51;;;;;;;35.20;33.30;;;12.50;99.90;;;;;;6210136;23;20416;-78
2022/12/23 05:46:17;;;;;;;35.40;33.60;;;12.50;99.90;;;;;;6210502;23;20409;-77
2022/12/23 05:48:44;;;;;;;34.50;32.53;;;;;;;;;;6210509;23;20441;-77
2022/12/23 05:51:11;;;;;;;35.30;33.20;;;12.40;99.90;;;;;;6210314;23;20447;-75
2022/12/23 05:53:38;;;;;;;34.70;32.70;;;12.40;99.90;;;;;;6210450;23;20493;-76
2022/12/23 05:56:06;;;;;;;34.80;32.90;;;12.50;99.90;;;;;;6210251;23;20419;-76
2022/12/23 05:58:32;;;;;;;34.53;32.43;;;12.60;99.90;;;;;;6209826;23;20415;-76
2022/12/23 06:01:01;;;;;;;34.00;32.10;;;12.40;99.90;;;;;;6211060;23;20417;-75
2022/12/23 06:03:28;;;;;;;34.20;32.23;;;12.40;99.90;;;;;;6210567;23;20417;-75
2022/12/23 06:05:54;;;;;;;34.60;32.20;;;12.30;99.90;;;;;;6210380;23;20455;-75
2022/12/23 06:08:21;;;;;;;33.97;31.90;;;12.40;99.90;;;;;;6209745;23;20456;-75
2022/12/23 06:10:48;;;;;;;33.73;31.60;;;12.40;99.90;;;;;;6210066;23;20400;-74
2022/12/23 06:13:15;;;;;;;33.70;31.80;;;12.40;99.90;;;;;;6210395;23;20520;-75
2022/12/23 06:15:41;;;;;;;33.07;31.17;;;12.40;99.90;;;;;;6210608;23;20419;-74
2022/12/23 06:18:09;;;;;;;33.27;31.20;;;12.40;99.90;;;;;;6210189;23;20416;-74
2022/12/23 06:20:36;;;;;;;32.67;30.87;;;12.40;99.90;;;;;;6210134;23;20417;-74
2022/12/23 06:23:03;;;;;;;32.00;30.20;;;12.30;99.90;;;;;;6209789;23;20499;-75
2022/12/23 06:25:30;;;;;;;31.30;29.60;;;12.10;99.90;;;;;;6210343;23;20413;-75
2022/12/23 06:27:56;;;;;;;31.30;29.60;;;12.20;99.90;;;;;;6210293;23;20420;-76
2022/12/23 06:30:23;;;;;;;30.50;28.90;;;12.10;99.90;;;;;;6209475;23;20959;-76
2022/12/23 06:32:50;;;;;;;30.30;28.60;;;12.10;99.90;;;;;;6209568;23;20491;-75
2022/12/23 06:35:18;;;;;;;30.63;29.03;;;12.10;99.90;;;;;;6209490;23;20444;-75
2022/12/23 06:37:44;;;;;;;31.57;29.87;;;12.00;99.90;;;;;;6209914;23;20512;-76
2022/12/23 06:40:12;;;;;;;31.50;29.60;;;12.00;99.90;;;;;;6209978;23;20412;-76
2022/12/23 06:42:39;;;;;;;31.53;29.73;;;12.00;99.90;;;;;;6209710;23;20405;-75
2022/12/23 06:45:06;;;;;;;32.10;30.30;;;12.10;99.90;;;;;;6209676;23;20440;-76
2022/12/23 06:47:33;;;;;;;33.50;31.60;;;12.20;99.90;;;;;;6209530;23;20413;-75
2022/12/23 06:50:00;;;;;;;35.40;33.10;;;12.30;99.90;;;;;;6209496;23;20518;-74
2022/12/23 06:52:28;;;;;;;35.37;33.17;;;12.10;99.90;;;;;;6209383;23;20447;-73
2022/12/23 06:54:54;;;;;;;36.20;33.90;;;12.10;99.90;;;;;;6209264;23;20936;-73
2022/12/23 06:57:21;;;;;;;35.87;33.77;;;12.20;99.90;;;;;;6209429;23;20767;-73
2022/12/23 06:59:48;;;;;;;35.67;33.67;;;12.30;99.90;;;;;;6208796;23;20412;-75
2022/12/23 07:02:15;;;;;;;37.23;34.83;;;12.30;99.90;;;;;;6209316;23;20412;-76
2022/12/23 07:04:41;;;;;;;35.37;33.17;;;12.40;99.90;;;;;;6209444;23;20412;-76
2022/12/23 07:07:08;;;;;;;35.10;33.00;;;12.30;99.90;;;;;;6208948;23;20440;-76
2022/12/23 07:09:36;;;;;;;34.60;32.43;;;12.10;99.90;;;;;;6208648;23;20998;-76
2022/12/23 07:12:03;;;;;;;34.33;32.30;;;12.00;99.90;;;;;;6208927;23;20415;-76
2022/12/23 07:14:30;;;;;;;37.13;34.70;;;12.00;99.90;;;;;;6209564;23;20512;-76
2022/12/23 07:16:57;;;;;;;35.50;33.27;;;12.00;99.90;;;;;;6209518;23;20424;-77
2022/12/23 07:19:24;;;;;;;33.80;31.63;;;12.00;99.90;;;;;;6208941;23;20475;-77
2022/12/23 07:21:50;;;;;;;34.30;32.20;;;12.00;99.90;;;;;;6208999;23;20744;-77
2022/12/23 07:24:17;;;;;;;34.90;32.70;;;12.10;99.90;;;;;;6209184;23;20408;-76
2022/12/23 07:26:45;;;;;;;36.10;33.10;;;12.20;99.90;;;;;;6210031;23;20753;-76
2022/12/23 07:29:12;;;;;;;35.40;33.00;;;12.10;99.90;;;;;;6209381;23;20532;-76
2022/12/23 07:31:39;;;;;;;36.07;33.77;;;12.20;99.90;;;;;;6209023;23;20901;-75
2022/12/23 07:34:05;;;;;;;36.30;34.07;;;12.30;99.90;;;;;;6208733;23;20723;-76
2022/12/23 07:36:32;;;;;;;36.77;34.33;;;12.30;99.90;;;;;;6208568;23;20421;-77
2022/12/23 07:38:59;;;;;;;38.10;35.40;;;12.40;99.90;;;;;;6209920;23;20504;-81
2022/12/23 07:41:25;;;;;;;38.27;35.57;;;12.30;99.90;;;;;;6209291;23;20866;-79
2022/12/23 07:43:53;;;;;;;36.13;33.87;;;12.20;99.90;;;;;;6208900;23;20440;-76
2022/12/23 07:46:20;;;;;;;35.77;33.57;;;12.20;99.90;;;;;;6209351;23;20408;-76
2022/12/23 07:48:47;;;;;;;34.63;32.53;;;12.10;99.90;;;;;;6208828;23;20444;-76
2022/12/23 07:51:13;;;;;;;34.67;32.57;;;12.00;99.90;;;;;;6209119;23;20974;-78
2022/12/23 07:53:40;;;;;;;34.70;32.60;;;11.90;99.90;;;;;;6209562;23;20409;-77
2022/12/23 07:56:07;;;;;;;34.07;31.97;;;11.90;99.90;;;;;;6209256;23;20413;-77
2022/12/23 07:58:34;;;;;;;32.27;30.33;;;11.80;99.90;;;;;;6209381;23;20413;-76
2022/12/23 08:01:06;;;;;;;33.67;31.70;;;11.80;99.90;;;;;;6209217;23;20738;-76
2022/12/23 08:03:33;;;;;;;35.37;33.07;;;11.70;99.90;;;;;;6209103;23;20513;-77
2022/12/23 08:06:01;;;;;;;34.23;32.07;;;11.70;99.90;;;;;;6209776;23;20417;-77
2022/12/23 08:08:28;;;;;;;34.57;32.27;;;11.70;99.90;;;;;;6209919;23;20412;-76
2022/12/23 08:10:58;;;;;;;33.17;31.03;;;11.60;99.90;;;;;;6209624;23;20445;-76
2022/12/23 08:13:25;;;;;;;32.07;29.80;;;11.60;99.90;;;;;;6209607;23;20394;-76
2022/12/23 08:15:55;;;;;;;31.83;29.93;;;11.70;99.90;;;;;;6209313;23;20512;-77
2022/12/23 08:18:23;;;;;;;31.47;29.67;;;11.70;99.90;;;;;;6209003;23;20920;-77
2022/12/23 08:20:57;;;;;;;31.67;29.87;;;11.80;99.90;;;;;;6209583;23;20397;-76
2022/12/23 08:23:25;;;;;;;29.70;28.10;;;11.80;99.90;;;;;;6211541;23;20441;-76
2022/12/23 08:25:59;;;;;;;32.53;30.50;;;11.80;99.90;;;;;;6211478;23;20408;-76
2022/12/23 08:28:26;;;;;;;29.80;28.10;;;11.90;99.90;;;;;;6215695;23;20885;-75
2022/12/23 08:30:53;;;;;;;31.20;29.30;;;11.90;99.90;;;;;;6212911;23;20440;-75
2022/12/23 08:33:19;;;;;;;31.10;29.30;;;12.00;99.90;;;;;;6211112;23;20703;-76
2022/12/23 08:35:47;;;;;;;32.00;30.10;;;12.10;99.90;;;;;;6211214;23;20770;-75
2022/12/23 08:38:14;;;;;;;33.27;31.03;;;12.20;99.90;;;;;;6211572;23;20412;-76
2022/12/23 08:40:41;;;;;;;36.43;33.70;;;12.10;99.90;;;;;;6211561;23;20400;-74
2022/12/23 08:43:08;;;;;;;35.03;32.93;;;12.20;99.90;;;;;;6211245;23;20423;-75
2022/12/23 08:45:36;;;;;;;37.07;34.13;;;12.20;99.90;;;;;;6211369;23;20413;-75
2022/12/23 08:48:03;;;;;;;34.53;32.23;;;12.20;99.90;;;;;;6211158;23;20436;-76
2022/12/23 08:50:30;;;;;;;35.23;33.13;;;12.20;99.90;;;;;;6210869;23;20505;-76
2022/12/23 08:52:58;;;;;;;35.17;33.07;;;12.10;99.90;;;;;;6207627;23;20443;-73
2022/12/23 08:55:25;;;;;;;36.20;33.80;;;12.10;99.90;;;;;;6211525;23;20404;-75
2022/12/23 08:57:51;;;;;;;36.40;34.30;;;12.10;99.90;;;;;;6211137;23;20408;-75
2022/12/23 09:00:18;;;;;;;37.77;35.27;;;12.10;99.90;;;;;;6210957;23;20420;-82
2022/12/23 09:02:45;;;;;;;35.87;33.47;;;12.00;99.90;;;;;;6211194;23;20415;-82
2022/12/23 09:05:12;;;;;;;36.43;34.00;;;12.00;99.90;;;;;;6208600;23;20408;-81
2022/12/23 09:07:38;;;;;;;36.40;34.00;;;11.90;99.90;;;;;;6210877;23;20491;-80
2022/12/23 09:10:08;;;;;;;35.80;33.60;;;12.00;99.90;;;;;;6210741;23;20820;-83
2022/12/23 09:12:35;;;;;;;36.40;33.93;;;12.00;99.90;;;;;;6210525;23;20486;-80
2022/12/23 09:15:01;;;;;;;35.77;33.40;;;12.10;99.90;;;;;;6210698;23;20533;-80
2022/12/23 09:17:28;;;;;;;37.13;34.63;;;12.10;99.90;;;;;;6210571;23;20916;-81
2022/12/23 09:19:55;;;;;;;36.57;34.27;;;12.10;99.90;;;;;;6210908;23;20416;-78
2022/12/23 09:22:21;;;;;;;36.10;34.00;;;12.10;99.90;;;;;;6210532;23;20411;-78
2022/12/23 09:24:48;;;;;;;36.33;34.03;;;12.10;99.90;;;;;;6210446;23;20682;-79
2022/12/23 09:27:16;;;;;;;35.70;33.60;;;12.00;99.90;;;;;;6210848;23;20746;-79
2022/12/23 09:29:43;;;;;;;38.00;35.73;;;12.00;99.90;;;;;;6210447;23;20445;-78
2022/12/23 09:32:09;;;;;;;34.73;32.47;;;12.00;99.90;;;;;;6209759;23;20740;-78
2022/12/23 09:34:36;;;;;;;36.17;33.77;;;12.00;99.90;;;;;;6210005;23;20412;-77
2022/12/23 09:37:03;;;;;;;37.30;34.80;;;12.00;99.90;;;;;;6209799;23;20412;-77
2022/12/23 09:39:30;;;;;;;37.03;34.60;;;12.00;99.90;;;;;;6210309;23;20488;-76
2022/12/23 09:42:05;;;;;;;36.33;33.93;;;12.00;99.90;;;;;;6210254;23;20439;-75
2022/12/23 09:44:48;;;;;;;35.57;33.40;;;12.00;99.90;;;;;;6210388;23;20393;-76
2022/12/23 09:47:19;;;;;;;34.83;32.40;;;12.00;99.90;;;;;;6210057;23;20880;-78
2022/12/23 09:49:51;;;;;;;33.80;31.60;;;12.00;99.90;;;;;;6209138;23;20455;-77
2022/12/23 09:52:25;;;;;;;32.97;31.07;;;12.00;99.90;;;;;;6209858;23;20478;-77
2022/12/23 09:54:54;;;;;;;33.60;31.50;;;12.00;99.90;;;;;;6210508;23;20705;-78
2022/12/23 09:57:23;;;;;;;33.67;31.67;;;12.10;99.90;;;;;;6210081;23;20905;-78
2022/12/23 10:00:02;;;;;;;30.43;28.60;;;12.10;99.90;;;;;;6210280;23;20874;-78
2022/12/23 10:02:41;;;;;;;32.57;30.67;;;12.10;99.90;;;;;;6210464;23;20433;-79
2022/12/23 10:05:20;;;;;;;31.80;30.00;;;12.10;99.90;;;;;;6209934;23;20419;-78
2022/12/23 10:07:51;;;;;;;32.50;30.27;;;12.20;99.90;;;;;;6210338;23;20415;-79
2022/12/23 10:10:24;;;;;;;32.93;30.67;;;12.20;99.90;;;;;;6210354;23;20528;-78
2022/12/23 10:12:52;;;;;;;34.27;31.63;;;12.20;99.90;;;;;;6210434;23;20488;-77
2022/12/23 10:15:23;;;;;;;28.90;26.87;;;12.30;99.90;;;;;;6210377;23;20412;-77
2022/12/23 10:17:54;;;;;;;26.47;25.07;;;12.30;99.90;;;;;;6210167;23;20405;-78
2022/12/23 10:20:33;;;;;;;25.90;24.17;;;12.30;99.90;;;;;;6210348;23;20688;-78
2022/12/23 10:23:00;;;;;;;25.80;24.20;;;12.30;99.90;;;;;;6210365;23;20396;-77
2022/12/23 10:25:32;;;;;;;25.03;23.60;;;12.40;99.90;;;;;;6210608;23;20417;-77
2022/12/23 10:27:59;;;;;;;23.00;21.90;;;12.50;99.90;;;;;;6210254;23;20420;-77
2022/12/23 10:30:33;;;;;;;23.60;22.50;;;12.60;99.90;;;;;;6207452;23;20445;-77
2022/12/23 10:33:04;;;;;;;22.77;21.57;;;12.70;99.90;;;;;;6210270;23;20404;-78
2022/12/23 10:35:44;;;;;;;21.63;20.53;;;12.70;99.90;;;;;;6210404;23;20451;-78
2022/12/23 10:38:32;;;;;;;20.57;19.67;;;12.80;99.90;;;;;;6210524;23;20453;-78
2022/12/23 10:41:08;;;;;;;19.87;18.97;;;13.00;99.90;;;;;;6207174;23;20412;-77
2022/12/23 10:43:51;;;;;;;19.80;19.00;;;13.10;99.90;;;;;;6209501;23;20400;-79
2022/12/23 10:46:27;;;;;;;18.90;18.10;;;13.20;99.90;;;;;;6209723;23;20822;-80
2022/12/23 10:49:02;;;;;;;18.53;17.67;;;13.30;99.90;;;;;;6210203;23;20400;-78
2022/12/23 10:51:34;;;;;;;17.90;17.10;;;13.30;99.90;;;;;;6209524;23;20451;-77
2022/12/23 10:54:05;;;;;;;16.47;15.87;;;13.40;99.90;;;;;;6209867;23;20404;-77
2022/12/23 10:56:32;;;;;;;16.60;15.90;;;13.40;99.90;;;;;;6209965;23;20386;-77
2022/12/23 10:59:01;;;;;;;17.07;16.37;;;13.50;99.90;;;;;;6209861;23;20880;-78
2022/12/23 11:01:30;;;;;;;15.50;14.90;;;13.40;99.90;;;;;;6209757;23;20420;-78
2022/12/23 11:04:04;;;;;;;16.87;16.17;;;13.40;99.90;;;;;;6210321;23;20421;-81
2022/12/23 11:06:34;;;;;;;16.47;15.77;;;13.40;99.90;;;;;;6209640;23;20393;-83
2022/12/23 11:09:03;;;;;;;16.07;15.47;;;13.40;99.90;;;;;;6208151;23;20415;-83
2022/12/23 11:11:54;;;;;;;15.80;15.30;;;13.40;99.90;;;;;;6209158;23;20779;-83
2022/12/23 11:14:33;;;;;;;18.47;17.77;;;13.50;99.90;;;;;;6208438;23;20389;-80
2022/12/23 11:17:01;;;;;;;19.37;18.63;;;13.40;99.90;;;;;;6209244;23;20412;-79
2022/12/23 11:19:28;;;;;;;19.93;19.03;;;13.40;99.90;;;;;;6209529;23;20404;-79
2022/12/23 11:21:57;;;;;;;20.27;19.40;;;13.40;99.90;;;;;;6209856;23;20401;-80
2022/12/23 11:24:35;;;;;;;20.77;19.67;;;13.30;99.90;;;;;;6209378;23;20409;-81
2022/12/23 11:27:04;;;;;;;20.77;19.93;;;13.30;99.90;;;;;;6206207;23;20403;-78
2022/12/23 11:29:35;;;;;;;21.50;20.53;;;13.30;99.90;;;;;;6208051;23;20416;-78
2022/12/23 11:32:16;;;;;;;22.80;21.80;;;13.30;99.90;;;;;;6208523;23;20409;-80
2022/12/23 11:34:46;;;;;;;21.27;20.37;;;13.20;99.90;;;;;;6208572;23;20427;-80
2022/12/23 11:37:25;;;;;;;21.67;20.53;;;13.20;99.90;;;;;;6209441;23;20412;-80
2022/12/23 11:39:52;;;;;;;20.30;19.50;;;13.20;99.90;;;;;;6208557;23;20481;-82
2022/12/23 11:42:26;;;;;;;20.10;19.30;;;13.20;99.90;;;;;;6208369;23;20564;-82
2022/12/23 11:44:54;;;;;;;19.83;18.93;;;13.20;99.90;;;;;;6208309;23;20405;-81
2022/12/23 11:47:29;;;;;;;20.20;19.40;;;13.20;99.90;;;;;;6208753;23;20757;-80
2022/12/23 11:49:57;;;;;;;20.23;19.20;;;13.30;99.90;;;;;;6209471;23;20442;-81
2022/12/23 11:52:26;;;;;;;19.20;18.50;;;13.30;99.90;;;;;;6211135;23;20440;-79
2022/12/23 11:54:55;;;;;;;20.40;19.50;;;13.30;99.90;;;;;;6210389;23;20409;-77
2022/12/23 11:57:38;;;;;;;22.00;20.90;;;13.30;99.90;;;;;;6209546;23;20405;-77
2022/12/23 12:00:07;;;;;;;20.67;19.73;;;13.30;99.90;;;;;;6209461;23;20677;-78
2022/12/23 12:05:35;;;;;;;21.80;20.80;;;13.40;99.90;;;;;;6203681;23;20408;-79
2022/12/23 12:08:06;;;;;;;22.23;21.23;;;13.50;99.90;;;;;;6207388;23;20416;-81
2022/12/23 12:10:36;;;;;;;20.67;19.87;;;13.50;99.90;;;;;;6208503;23;20529;-81
2022/12/23 12:13:05;;;;;;;22.20;21.10;;;13.50;99.90;;;;;;6209342;23;20413;-83
2022/12/23 12:15:41;;;;;;;21.50;20.60;;;13.50;99.90;;;;;;6209061;23;20746;-84
2022/12/23 12:18:13;;;;;;;23.40;22.40;;;13.50;99.90;;;;;;6209825;23;20393;-85
2022/12/23 12:20:44;;;;;;;21.90;20.80;;;13.60;99.90;;;;;;6209618;23;20389;-82
2022/12/23 12:23:17;;;;;;;22.80;21.70;;;13.60;99.90;;;;;;6209394;23;20857;-82
2022/12/23 12:25:47;;;;;;;23.53;22.53;;;13.60;99.90;;;;;;6209932;23;20514;-82
2022/12/23 12:28:20;;;;;;;21.97;21.00;;;13.60;99.90;;;;;;6209902;23;20720;-81
2022/12/23 12:30:50;;;;;;;21.80;20.90;;;13.60;99.90;;;;;;6209091;23;20425;-81
2022/12/23 12:33:25;;;;;;;20.70;19.80;;;13.60;99.90;;;;;;6209299;23;20393;-81
2022/12/23 12:35:58;;;;;;;20.03;19.23;;;13.50;99.90;;;;;;6209009;23;20392;-80
2022/12/23 12:38:27;;;;;;;20.33;19.50;;;13.50;99.90;;;;;;6209442;23;20453;-82
2022/12/23 12:40:57;;;;;;;19.83;18.83;;;13.50;99.90;;;;;;6209082;23;20420;-79
2022/12/23 12:43:28;;;;;;;19.90;18.90;;;13.50;99.90;;;;;;6209310;23;20821;-80
2022/12/23 12:46:08;;;;;;;19.77;18.97;;;13.50;99.90;;;;;;6209655;23;20733;-78
2022/12/23 12:48:44;;;;;;;19.40;18.60;;;13.50;99.90;;;;;;6209331;23;20393;-78
2022/12/23 12:51:18;;;;;;;16.93;16.23;;;13.50;99.90;;;;;;6209033;23;20502;-77
2022/12/23 12:53:56;;;;;;;15.30;14.60;;;13.50;99.90;;;;;;6209449;23;20393;-76
2022/12/23 12:56:29;;;;;;;13.80;13.30;;;13.60;99.90;;;;;;6209381;23;20671;-77
2022/12/23 12:58:56;;;;;;;13.90;13.40;;;13.50;99.90;;;;;;6209829;23;20397;-75
2022/12/23 13:01:36;;;;;;;14.20;13.50;;;13.60;99.90;;;;;;6209123;23;20401;-78
2022/12/23 13:04:18;;;;;;;13.27;12.67;;;13.60;99.90;;;;;;6209069;23;20393;-76
2022/12/23 13:06:51;;;;;;;13.53;12.97;;;13.60;99.90;;;;;;6209716;23;20715;-75
2022/12/23 13:09:26;;;;;;;13.30;12.77;;;13.70;99.90;;;;;;6208751;23;20435;-78